EISG/SXL METAR and TAF weather

Enter ICAO airport designator
Station Type Date Time Source
EISG METAR 2024/04/15 09:30 UTC NOAA

EISG 150930Z 30027KT 9000 FEW028 SCT042 07/05 Q1009


Station Type Date Time Source
EISG Decoded METAR 2024/04/15 09:30 UTC NOAA

Station name not available
Apr 15, 2024 - 05:30 AM EDT / 2024.04.15 0930 UTC
Wind: from the WNW (300 degrees) at 31 MPH (27 KT):0
Visibility: 5 mile(s):0
Sky conditions: partly cloudy
Temperature: 44 F (7 C)
Dew Point: 41 F (5 C)
Relative Humidity: 87%
Pressure (altimeter): 29.80 in. Hg (1009 hPa)
ob: EISG 150930Z 30027KT 9000 FEW028 SCT042 07/05 Q1009
cycle: 9

Station Type Date Time Source
EISG TAF UTC NOAA

Error!

Example: see airport list